sensor_id;sensor_type;location;lat;lon;timestamp;temperature;humidity
68128;SHT30;54931;52.098;21.006;2023-02-03T00:02:27;1.26;79.18
68128;SHT30;54931;52.098;21.006;2023-02-03T00:04:55;1.25;78.93
68128;SHT30;54931;52.098;21.006;2023-02-03T00:07:23;1.24;78.89
68128;SHT30;54931;52.098;21.006;2023-02-03T00:09:51;1.23;78.57
68128;SHT30;54931;52.098;21.006;2023-02-03T00:12:20;1.21;78.59
68128;SHT30;54931;52.098;21.006;2023-02-03T00:14:48;1.21;78.49
68128;SHT30;54931;52.098;21.006;2023-02-03T00:17:16;1.18;78.42
68128;SHT30;54931;52.098;21.006;2023-02-03T00:19:43;1.15;78.41
68128;SHT30;54931;52.098;21.006;2023-02-03T00:22:11;1.11;78.32
68128;SHT30;54931;52.098;21.006;2023-02-03T00:24:39;1.07;78.07
68128;SHT30;54931;52.098;21.006;2023-02-03T00:27:06;1.02;78.14
68128;SHT30;54931;52.098;21.006;2023-02-03T00:29:34;0.99;78.18
68128;SHT30;54931;52.098;21.006;2023-02-03T00:32:01;0.96;78.24
68128;SHT30;54931;52.098;21.006;2023-02-03T00:34:29;0.92;78.31
68128;SHT30;54931;52.098;21.006;2023-02-03T00:36:58;0.91;78.41
68128;SHT30;54931;52.098;21.006;2023-02-03T00:39:26;0.90;78.43
68128;SHT30;54931;52.098;21.006;2023-02-03T00:41:53;0.90;78.50
68128;SHT30;54931;52.098;21.006;2023-02-03T00:44:21;0.90;78.42
68128;SHT30;54931;52.098;21.006;2023-02-03T00:46:48;0.92;78.31
68128;SHT30;54931;52.098;21.006;2023-02-03T00:49:16;0.94;78.25
68128;SHT30;54931;52.098;21.006;2023-02-03T00:51:44;0.95;78.01
68128;SHT30;54931;52.098;21.006;2023-02-03T00:54:11;0.97;77.97
68128;SHT30;54931;52.098;21.006;2023-02-03T00:56:40;0.98;77.85
68128;SHT30;54931;52.098;21.006;2023-02-03T00:59:08;1.00;77.53
68128;SHT30;54931;52.098;21.006;2023-02-03T01:01:36;1.00;77.48
68128;SHT30;54931;52.098;21.006;2023-02-03T01:04:04;1.00;77.27
68128;SHT30;54931;52.098;21.006;2023-02-03T01:06:31;1.01;77.14
68128;SHT30;54931;52.098;21.006;2023-02-03T01:09:00;1.00;77.16
68128;SHT30;54931;52.098;21.006;2023-02-03T01:11:30;0.98;77.18
68128;SHT30;54931;52.098;21.006;2023-02-03T01:13:58;0.96;77.31
68128;SHT30;54931;52.098;21.006;2023-02-03T01:16:28;0.94;76.82
68128;SHT30;54931;52.098;21.006;2023-02-03T01:18:57;0.94;76.87
68128;SHT30;54931;52.098;21.006;2023-02-03T01:21:25;0.92;76.83
68128;SHT30;54931;52.098;21.006;2023-02-03T01:23:52;0.92;77.09
68128;SHT30;54931;52.098;21.006;2023-02-03T01:26:21;0.91;77.04
68128;SHT30;54931;52.098;21.006;2023-02-03T01:28:54;0.91;77.13
68128;SHT30;54931;52.098;21.006;2023-02-03T01:31:28;0.91;77.01
68128;SHT30;54931;52.098;21.006;2023-02-03T01:34:06;0.91;77.10
68128;SHT30;54931;52.098;21.006;2023-02-03T01:36:37;0.90;77.27
68128;SHT30;54931;52.098;21.006;2023-02-03T01:39:06;0.88;77.33
68128;SHT30;54931;52.098;21.006;2023-02-03T01:41:34;0.87;77.46
68128;SHT30;54931;52.098;21.006;2023-02-03T01:47:19;0.85;77.20
68128;SHT30;54931;52.098;21.006;2023-02-03T01:50:02;0.84;77.26
68128;SHT30;54931;52.098;21.006;2023-02-03T01:52:50;0.82;77.38
68128;SHT30;54931;52.098;21.006;2023-02-03T01:55:27;0.80;77.35
68128;SHT30;54931;52.098;21.006;2023-02-03T01:58:16;0.79;77.34
68128;SHT30;54931;52.098;21.006;2023-02-03T02:00:51;0.77;77.29
68128;SHT30;54931;52.098;21.006;2023-02-03T02:03:30;0.77;77.07
68128;SHT30;54931;52.098;21.006;2023-02-03T02:06:11;0.76;76.61
68128;SHT30;54931;52.098;21.006;2023-02-03T02:08:41;0.76;76.68
68128;SHT30;54931;52.098;21.006;2023-02-03T02:11:14;0.75;76.50
68128;SHT30;54931;52.098;21.006;2023-02-03T02:13:42;0.74;76.52
68128;SHT30;54931;52.098;21.006;2023-02-03T02:16:16;0.70;75.70
68128;SHT30;54931;52.098;21.006;2023-02-03T02:22:29;0.69;75.90
68128;SHT30;54931;52.098;21.006;2023-02-03T02:31:51;0.65;76.02
68128;SHT30;54931;52.098;21.006;2023-02-03T02:35:05;0.65;75.92
68128;SHT30;54931;52.098;21.006;2023-02-03T02:40:35;0.63;75.92
68128;SHT30;54931;52.098;21.006;2023-02-03T02:45:52;0.58;75.67
68128;SHT30;54931;52.098;21.006;2023-02-03T02:48:31;0.56;75.42
68128;SHT30;54931;52.098;21.006;2023-02-03T02:51:10;0.53;75.41
68128;SHT30;54931;52.098;21.006;2023-02-03T02:53:44;0.49;75.42
68128;SHT30;54931;52.098;21.006;2023-02-03T02:56:20;0.44;75.49
68128;SHT30;54931;52.098;21.006;2023-02-03T02:58:51;0.38;75.55
68128;SHT30;54931;52.098;21.006;2023-02-03T03:01:20;0.30;75.70
68128;SHT30;54931;52.098;21.006;2023-02-03T03:03:48;0.21;75.85
68128;SHT30;54931;52.098;21.006;2023-02-03T03:06:23;0.15;76.03
68128;SHT30;54931;52.098;21.006;2023-02-03T03:11:39;-0.02;76.49
68128;SHT30;54931;52.098;21.006;2023-02-03T03:14:12;-0.08;76.68
68128;SHT30;54931;52.098;21.006;2023-02-03T03:16:47;-0.14;76.82
68128;SHT30;54931;52.098;21.006;2023-02-03T03:19:23;-0.22;76.93
68128;SHT30;54931;52.098;21.006;2023-02-03T03:22:00;-0.29;77.19
68128;SHT30;54931;52.098;21.006;2023-02-03T03:27:43;-0.39;77.71
68128;SHT30;54931;52.098;21.006;2023-02-03T03:30:22;-0.44;77.90
68128;SHT30;54931;52.098;21.006;2023-02-03T03:32:59;-0.48;78.10
68128;SHT30;54931;52.098;21.006;2023-02-03T03:35:30;-0.49;78.14
68128;SHT30;54931;52.098;21.006;2023-02-03T03:38:45;-0.54;78.28
68128;SHT30;54931;52.098;21.006;2023-02-03T03:41:48;-0.59;78.44
68128;SHT30;54931;52.098;21.006;2023-02-03T03:44:28;-0.60;78.59
68128;SHT30;54931;52.098;21.006;2023-02-03T03:49:59;-0.64;78.64
68128;SHT30;54931;52.098;21.006;2023-02-03T03:52:31;-0.64;78.70
68128;SHT30;54931;52.098;21.006;2023-02-03T03:55:05;-0.64;78.70
68128;SHT30;54931;52.098;21.006;2023-02-03T03:57:44;-0.60;78.67
68128;SHT30;54931;52.098;21.006;2023-02-03T04:00:26;-0.57;78.55
68128;SHT30;54931;52.098;21.006;2023-02-03T04:02:59;-0.55;78.40
68128;SHT30;54931;52.098;21.006;2023-02-03T04:05:37;-0.52;78.20
68128;SHT30;54931;52.098;21.006;2023-02-03T04:08:06;-0.51;78.11
68128;SHT30;54931;52.098;21.006;2023-02-03T04:10:35;-0.51;77.99
68128;SHT30;54931;52.098;21.006;2023-02-03T04:13:06;-0.52;77.92
68128;SHT30;54931;52.098;21.006;2023-02-03T04:15:37;-0.56;77.91
68128;SHT30;54931;52.098;21.006;2023-02-03T04:18:05;-0.60;77.85
68128;SHT30;54931;52.098;21.006;2023-02-03T04:20:33;-0.61;77.69
68128;SHT30;54931;52.098;21.006;2023-02-03T04:23:01;-0.62;77.62
68128;SHT30;54931;52.098;21.006;2023-02-03T04:25:29;-0.65;77.53
68128;SHT30;54931;52.098;21.006;2023-02-03T04:27:56;-0.68;77.57
68128;SHT30;54931;52.098;21.006;2023-02-03T04:30:24;-0.71;77.64
68128;SHT30;54931;52.098;21.006;2023-02-03T04:32:51;-0.76;77.72
68128;SHT30;54931;52.098;21.006;2023-02-03T04:35:20;-0.80;77.80
68128;SHT30;54931;52.098;21.006;2023-02-03T04:37:48;-0.83;77.87
68128;SHT30;54931;52.098;21.006;2023-02-03T04:40:16;-0.87;77.93
68128;SHT30;54931;52.098;21.006;2023-02-03T04:42:44;-0.91;78.04
68128;SHT30;54931;52.098;21.006;2023-02-03T04:45:13;-0.92;78.10
68128;SHT30;54931;52.098;21.006;2023-02-03T04:47:41;-0.94;78.20
68128;SHT30;54931;52.098;21.006;2023-02-03T04:50:09;-0.98;78.25
68128;SHT30;54931;52.098;21.006;2023-02-03T04:52:36;-1.00;78.47
68128;SHT30;54931;52.098;21.006;2023-02-03T04:55:04;-1.03;78.66
68128;SHT30;54931;52.098;21.006;2023-02-03T04:57:32;-1.02;78.94
68128;SHT30;54931;52.098;21.006;2023-02-03T04:59:59;-1.05;78.98
68128;SHT30;54931;52.098;21.006;2023-02-03T05:02:27;-1.06;79.01
68128;SHT30;54931;52.098;21.006;2023-02-03T05:04:54;-1.09;79.27
68128;SHT30;54931;52.098;21.006;2023-02-03T05:07:22;-1.10;79.27
68128;SHT30;54931;52.098;21.006;2023-02-03T05:09:49;-1.15;79.31
68128;SHT30;54931;52.098;21.006;2023-02-03T05:12:17;-1.17;79.52
68128;SHT30;54931;52.098;21.006;2023-02-03T05:14:44;-1.20;79.51
68128;SHT30;54931;52.098;21.006;2023-02-03T05:17:12;-1.25;79.56
68128;SHT30;54931;52.098;21.006;2023-02-03T05:19:40;-1.31;79.66
68128;SHT30;54931;52.098;21.006;2023-02-03T05:22:08;-1.37;79.75
68128;SHT30;54931;52.098;21.006;2023-02-03T05:24:35;-1.40;79.92
68128;SHT30;54931;52.098;21.006;2023-02-03T05:27:03;-1.42;79.97
68128;SHT30;54931;52.098;21.006;2023-02-03T05:29:30;-1.45;80.00
68128;SHT30;54931;52.098;21.006;2023-02-03T05:31:58;-1.46;80.17
68128;SHT30;54931;52.098;21.006;2023-02-03T05:34:26;-1.49;80.16
68128;SHT30;54931;52.098;21.006;2023-02-03T05:36:54;-1.53;80.26
68128;SHT30;54931;52.098;21.006;2023-02-03T05:39:21;-1.56;80.49
68128;SHT30;54931;52.098;21.006;2023-02-03T05:41:49;-1.58;80.56
68128;SHT30;54931;52.098;21.006;2023-02-03T05:46:54;-1.58;80.76
68128;SHT30;54931;52.098;21.006;2023-02-03T05:49:25;-1.57;80.81
68128;SHT30;54931;52.098;21.006;2023-02-03T05:51:53;-1.58;80.80
68128;SHT30;54931;52.098;21.006;2023-02-03T05:54:21;-1.59;80.82
68128;SHT30;54931;52.098;21.006;2023-02-03T05:56:49;-1.61;80.99
68128;SHT30;54931;52.098;21.006;2023-02-03T05:59:17;-1.63;81.09
68128;SHT30;54931;52.098;21.006;2023-02-03T06:01:45;-1.65;81.13
68128;SHT30;54931;52.098;21.006;2023-02-03T06:04:12;-1.68;81.24
68128;SHT30;54931;52.098;21.006;2023-02-03T06:06:40;-1.70;81.44
68128;SHT30;54931;52.098;21.006;2023-02-03T06:09:08;-1.69;81.63
68128;SHT30;54931;52.098;21.006;2023-02-03T06:11:36;-1.70;81.62
68128;SHT30;54931;52.098;21.006;2023-02-03T06:14:04;-1.68;81.61
68128;SHT30;54931;52.098;21.006;2023-02-03T06:16:32;-1.67;81.74
68128;SHT30;54931;52.098;21.006;2023-02-03T06:19:00;-1.68;81.76
68128;SHT30;54931;52.098;21.006;2023-02-03T06:21:28;-1.69;81.86
68128;SHT30;54931;52.098;21.006;2023-02-03T06:23:56;-1.68;81.98
68128;SHT30;54931;52.098;21.006;2023-02-03T06:26:23;-1.66;82.10
68128;SHT30;54931;52.098;21.006;2023-02-03T06:28:51;-1.66;82.18
68128;SHT30;54931;52.098;21.006;2023-02-03T06:31:18;-1.63;82.34
68128;SHT30;54931;52.098;21.006;2023-02-03T06:33:46;-1.62;82.31
68128;SHT30;54931;52.098;21.006;2023-02-03T06:36:13;-1.59;82.29
68128;SHT30;54931;52.098;21.006;2023-02-03T06:38:41;-1.55;82.26
68128;SHT30;54931;52.098;21.006;2023-02-03T06:41:09;-1.51;82.17
68128;SHT30;54931;52.098;21.006;2023-02-03T06:43:36;-1.47;82.01
68128;SHT30;54931;52.098;21.006;2023-02-03T06:46:04;-1.44;81.99
68128;SHT30;54931;52.098;21.006;2023-02-03T06:48:31;-1.40;81.93
68128;SHT30;54931;52.098;21.006;2023-02-03T06:50:59;-1.37;81.88
68128;SHT30;54931;52.098;21.006;2023-02-03T06:53:27;-1.31;81.88
68128;SHT30;54931;52.098;21.006;2023-02-03T06:55:55;-1.24;81.84
68128;SHT30;54931;52.098;21.006;2023-02-03T06:58:22;-1.18;81.83
68128;SHT30;54931;52.098;21.006;2023-02-03T07:00:50;-1.10;81.78
68128;SHT30;54931;52.098;21.006;2023-02-03T07:03:17;-1.02;81.67
68128;SHT30;54931;52.098;21.006;2023-02-03T07:05:45;-0.91;81.54
68128;SHT30;54931;52.098;21.006;2023-02-03T07:08:13;-0.82;81.34
68128;SHT30;54931;52.098;21.006;2023-02-03T07:10:40;-0.72;81.20
68128;SHT30;54931;52.098;21.006;2023-02-03T07:13:08;-0.60;81.14
68128;SHT30;54931;52.098;21.006;2023-02-03T07:15:36;-0.49;80.97
68128;SHT30;54931;52.098;21.006;2023-02-03T07:18:03;-0.27;80.95
68128;SHT30;54931;52.098;21.006;2023-02-03T07:20:31;0.22;80.79
68128;SHT30;54931;52.098;21.006;2023-02-03T07:22:59;0.79;79.94
68128;SHT30;54931;52.098;21.006;2023-02-03T07:25:27;1.32;79.03
68128;SHT30;54931;52.098;21.006;2023-02-03T07:27:54;1.41;77.08
68128;SHT30;54931;52.098;21.006;2023-02-03T07:30:22;1.16;76.08
68128;SHT30;54931;52.098;21.006;2023-02-03T07:32:50;0.96;76.39
68128;SHT30;54931;52.098;21.006;2023-02-03T07:35:19;0.82;76.40
68128;SHT30;54931;52.098;21.006;2023-02-03T07:37:47;0.73;76.49
68128;SHT30;54931;52.098;21.006;2023-02-03T07:40:15;0.68;76.67
68128;SHT30;54931;52.098;21.006;2023-02-03T07:42:44;0.71;76.65
68128;SHT30;54931;52.098;21.006;2023-02-03T07:45:14;0.83;76.79
68128;SHT30;54931;52.098;21.006;2023-02-03T07:47:44;1.08;76.01
68128;SHT30;54931;52.098;21.006;2023-02-03T07:50:11;1.33;75.69
68128;SHT30;54931;52.098;21.006;2023-02-03T07:52:39;1.51;74.98
68128;SHT30;54931;52.098;21.006;2023-02-03T07:55:07;1.60;74.51
68128;SHT30;54931;52.098;21.006;2023-02-03T07:57:36;1.62;73.70
68128;SHT30;54931;52.098;21.006;2023-02-03T08:00:04;1.62;73.65
68128;SHT30;54931;52.098;21.006;2023-02-03T08:02:34;1.70;73.26
68128;SHT30;54931;52.098;21.006;2023-02-03T08:05:01;1.87;72.98
68128;SHT30;54931;52.098;21.006;2023-02-03T08:07:29;2.09;73.13
68128;SHT30;54931;52.098;21.006;2023-02-03T08:09:57;2.16;72.29
68128;SHT30;54931;52.098;21.006;2023-02-03T08:12:25;2.22;72.43
68128;SHT30;54931;52.098;21.006;2023-02-03T08:14:53;2.44;71.94
68128;SHT30;54931;52.098;21.006;2023-02-03T08:17:21;2.67;71.80
68128;SHT30;54931;52.098;21.006;2023-02-03T08:19:48;2.74;70.83
68128;SHT30;54931;52.098;21.006;2023-02-03T08:22:16;2.71;70.17
68128;SHT30;54931;52.098;21.006;2023-02-03T08:24:45;2.71;70.60
68128;SHT30;54931;52.098;21.006;2023-02-03T08:27:15;2.73;70.45
68128;SHT30;54931;52.098;21.006;2023-02-03T08:29:46;2.81;70.28
68128;SHT30;54931;52.098;21.006;2023-02-03T08:32:19;2.89;70.21
68128;SHT30;54931;52.098;21.006;2023-02-03T08:34:48;2.92;70.07
68128;SHT30;54931;52.098;21.006;2023-02-03T08:37:18;2.95;69.63
68128;SHT30;54931;52.098;21.006;2023-02-03T08:39:50;2.95;69.19
68128;SHT30;54931;52.098;21.006;2023-02-03T08:42:18;2.83;67.97
68128;SHT30;54931;52.098;21.006;2023-02-03T08:44:47;2.83;68.61
68128;SHT30;54931;52.098;21.006;2023-02-03T08:47:15;2.79;68.59
68128;SHT30;54931;52.098;21.006;2023-02-03T08:49:44;2.76;67.48
68128;SHT30;54931;52.098;21.006;2023-02-03T08:52:13;2.72;67.31
68128;SHT30;54931;52.098;21.006;2023-02-03T08:54:41;2.73;66.59
68128;SHT30;54931;52.098;21.006;2023-02-03T08:57:09;2.74;67.32
68128;SHT30;54931;52.098;21.006;2023-02-03T08:59:37;2.78;66.05
68128;SHT30;54931;52.098;21.006;2023-02-03T09:02:08;2.83;66.52
68128;SHT30;54931;52.098;21.006;2023-02-03T09:04:43;2.97;66.69
68128;SHT30;54931;52.098;21.006;2023-02-03T09:07:13;3.04;66.56
68128;SHT30;54931;52.098;21.006;2023-02-03T09:09:42;3.23;66.79
68128;SHT30;54931;52.098;21.006;2023-02-03T09:12:10;3.37;64.61
68128;SHT30;54931;52.098;21.006;2023-02-03T09:14:39;3.33;62.32
68128;SHT30;54931;52.098;21.006;2023-02-03T09:17:08;3.25;62.71
68128;SHT30;54931;52.098;21.006;2023-02-03T09:19:36;3.35;62.58
68128;SHT30;54931;52.098;21.006;2023-02-03T09:22:04;3.41;63.04
68128;SHT30;54931;52.098;21.006;2023-02-03T09:24:32;3.38;61.43
68128;SHT30;54931;52.098;21.006;2023-02-03T09:27:00;3.21;62.04
68128;SHT30;54931;52.098;21.006;2023-02-03T09:29:28;3.13;62.50
68128;SHT30;54931;52.098;21.006;2023-02-03T09:31:56;2.98;61.24
68128;SHT30;54931;52.098;21.006;2023-02-03T09:34:24;2.84;61.88
68128;SHT30;54931;52.098;21.006;2023-02-03T09:36:52;2.87;61.61
68128;SHT30;54931;52.098;21.006;2023-02-03T09:39:20;2.96;62.08
68128;SHT30;54931;52.098;21.006;2023-02-03T09:42:05;3.04;61.91
68128;SHT30;54931;52.098;21.006;2023-02-03T09:47:42;2.81;60.90
68128;SHT30;54931;52.098;21.006;2023-02-03T09:50:33;2.84;60.33
68128;SHT30;54931;52.098;21.006;2023-02-03T09:53:03;2.87;60.63
68128;SHT30;54931;52.098;21.006;2023-02-03T09:55:45;2.90;60.29
68128;SHT30;54931;52.098;21.006;2023-02-03T09:58:15;2.89;59.40
68128;SHT30;54931;52.098;21.006;2023-02-03T10:00:49;2.89;59.25
68128;SHT30;54931;52.098;21.006;2023-02-03T10:03:31;2.81;59.69
68128;SHT30;54931;52.098;21.006;2023-02-03T10:06:23;2.87;60.64
68128;SHT30;54931;52.098;21.006;2023-02-03T10:09:04;3.01;60.63
68128;SHT30;54931;52.098;21.006;2023-02-03T10:22:40;3.35;57.93
68128;SHT30;54931;52.098;21.006;2023-02-03T10:28:04;3.32;58.53
68128;SHT30;54931;52.098;21.006;2023-02-03T10:30:43;3.40;58.46
68128;SHT30;54931;52.098;21.006;2023-02-03T10:33:18;3.32;56.56
68128;SHT30;54931;52.098;21.006;2023-02-03T10:41:18;2.99;58.38
68128;SHT30;54931;52.098;21.006;2023-02-03T10:43:49;3.00;59.04
68128;SHT30;54931;52.098;21.006;2023-02-03T10:46:20;3.10;59.77
68128;SHT30;54931;52.098;21.006;2023-02-03T10:48:56;3.18;58.76
68128;SHT30;54931;52.098;21.006;2023-02-03T10:51:26;3.07;58.20
68128;SHT30;54931;52.098;21.006;2023-02-03T10:54:03;2.99;59.15
68128;SHT30;54931;52.098;21.006;2023-02-03T10:56:31;2.87;58.74
68128;SHT30;54931;52.098;21.006;2023-02-03T10:59:04;2.79;59.72
68128;SHT30;54931;52.098;21.006;2023-02-03T11:04:26;2.63;59.83
68128;SHT30;54931;52.098;21.006;2023-02-03T11:07:00;2.50;59.84
68128;SHT30;54931;52.098;21.006;2023-02-03T11:09:36;2.37;60.33
68128;SHT30;54931;52.098;21.006;2023-02-03T11:12:15;2.30;60.74
68128;SHT30;54931;52.098;21.006;2023-02-03T11:14:46;2.25;60.99
68128;SHT30;54931;52.098;21.006;2023-02-03T11:17:17;2.21;61.19
68128;SHT30;54931;52.098;21.006;2023-02-03T11:19:53;2.12;61.03
68128;SHT30;54931;52.098;21.006;2023-02-03T11:22:46;2.09;61.86
68128;SHT30;54931;52.098;21.006;2023-02-03T11:25:16;2.07;61.83
68128;SHT30;54931;52.098;21.006;2023-02-03T11:28:02;2.00;62.30
68128;SHT30;54931;52.098;21.006;2023-02-03T11:30:34;2.00;62.55
68128;SHT30;54931;52.098;21.006;2023-02-03T11:33:14;1.96;62.58
68128;SHT30;54931;52.098;21.006;2023-02-03T11:35:57;1.95;62.22
68128;SHT30;54931;52.098;21.006;2023-02-03T11:38:29;1.93;62.35
68128;SHT30;54931;52.098;21.006;2023-02-03T11:41:02;1.92;62.39
68128;SHT30;54931;52.098;21.006;2023-02-03T11:43:30;1.93;62.21
68128;SHT30;54931;52.098;21.006;2023-02-03T11:46:02;1.96;62.35
68128;SHT30;54931;52.098;21.006;2023-02-03T11:51:19;2.05;62.57
68128;SHT30;54931;52.098;21.006;2023-02-03T11:54:39;2.11;61.48
68128;SHT30;54931;52.098;21.006;2023-02-03T12:00:25;2.06;60.82
68128;SHT30;54931;52.098;21.006;2023-02-03T12:12:53;2.07;60.96
68128;SHT30;54931;52.098;21.006;2023-02-03T12:18:25;2.12;60.33
68128;SHT30;54931;52.098;21.006;2023-02-03T12:21:14;2.12;60.60
68128;SHT30;54931;52.098;21.006;2023-02-03T12:27:19;2.10;60.41
68128;SHT30;54931;52.098;21.006;2023-02-03T12:30:29;2.03;60.84
68128;SHT30;54931;52.098;21.006;2023-02-03T12:33:17;2.03;61.56
68128;SHT30;54931;52.098;21.006;2023-02-03T12:35:58;2.03;61.04
68128;SHT30;54931;52.098;21.006;2023-02-03T12:41:23;2.01;64.43
68128;SHT30;54931;52.098;21.006;2023-02-03T12:43:57;2.00;64.69
68128;SHT30;54931;52.098;21.006;2023-02-03T12:46:42;1.97;64.85
68128;SHT30;54931;52.098;21.006;2023-02-03T12:51:46;1.93;65.19
68128;SHT30;54931;52.098;21.006;2023-02-03T12:54:43;1.90;65.35
68128;SHT30;54931;52.098;21.006;2023-02-03T13:00:17;1.87;66.21
68128;SHT30;54931;52.098;21.006;2023-02-03T13:05:53;1.82;67.18
68128;SHT30;54931;52.098;21.006;2023-02-03T13:08:28;1.75;67.76
68128;SHT30;54931;52.098;21.006;2023-02-03T13:11:15;1.70;68.45
68128;SHT30;54931;52.098;21.006;2023-02-03T13:14:39;1.63;69.15
68128;SHT30;54931;52.098;21.006;2023-02-03T13:20:04;1.51;70.81
68128;SHT30;54931;52.098;21.006;2023-02-03T13:22:43;1.41;71.66
68128;SHT30;54931;52.098;21.006;2023-02-03T13:28:46;1.13;74.11
68128;SHT30;54931;52.098;21.006;2023-02-03T13:31:45;1.03;74.65
68128;SHT30;54931;52.098;21.006;2023-02-03T13:35:06;0.92;75.22
68128;SHT30;54931;52.098;21.006;2023-02-03T13:44:10;0.60;77.12
68128;SHT30;54931;52.098;21.006;2023-02-03T13:46:47;0.54;77.56
68128;SHT30;54931;52.098;21.006;2023-02-03T13:49:26;0.47;78.34
68128;SHT30;54931;52.098;21.006;2023-02-03T13:51:58;0.44;78.40
68128;SHT30;54931;52.098;21.006;2023-02-03T13:54:28;0.43;78.78
68128;SHT30;54931;52.098;21.006;2023-02-03T13:57:20;0.41;79.20
68128;SHT30;54931;52.098;21.006;2023-02-03T13:59:57;0.41;79.24
68128;SHT30;54931;52.098;21.006;2023-02-03T14:04:56;0.40;79.75
68128;SHT30;54931;52.098;21.006;2023-02-03T14:07:32;0.37;79.99
68128;SHT30;54931;52.098;21.006;2023-02-03T14:25:31;0.13;82.21
68128;SHT30;54931;52.098;21.006;2023-02-03T14:28:15;0.12;82.38
68128;SHT30;54931;52.098;21.006;2023-02-03T14:31:06;0.09;82.58
68128;SHT30;54931;52.098;21.006;2023-02-03T14:39:21;0.04;82.96
68128;SHT30;54931;52.098;21.006;2023-02-03T14:42:05;0.02;83.39
68128;SHT30;54931;52.098;21.006;2023-02-03T14:55:58;0.00;83.72
68128;SHT30;54931;52.098;21.006;2023-02-03T14:59:34;-0.00;83.69
68128;SHT30;54931;52.098;21.006;2023-02-03T15:03:13;-0.01;83.83
68128;SHT30;54931;52.098;21.006;2023-02-03T15:05:39;-0.01;83.80
68128;SHT30;54931;52.098;21.006;2023-02-03T15:08:33;-0.01;83.79
68128;SHT30;54931;52.098;21.006;2023-02-03T15:14:19;-0.01;83.92
68128;SHT30;54931;52.098;21.006;2023-02-03T15:17:01;-0.01;84.01
68128;SHT30;54931;52.098;21.006;2023-02-03T15:19:49;-0.01;83.92
68128;SHT30;54931;52.098;21.006;2023-02-03T15:22:19;-0.02;83.92
68128;SHT30;54931;52.098;21.006;2023-02-03T15:24:56;-0.01;84.00
68128;SHT30;54931;52.098;21.006;2023-02-03T15:27:27;-0.02;84.11
68128;SHT30;54931;52.098;21.006;2023-02-03T15:29:58;-0.02;84.09
68128;SHT30;54931;52.098;21.006;2023-02-03T15:33:06;-0.04;84.12
68128;SHT30;54931;52.098;21.006;2023-02-03T15:35:53;-0.04;84.30
68128;SHT30;54931;52.098;21.006;2023-02-03T15:38:30;-0.03;84.28
68128;SHT30;54931;52.098;21.006;2023-02-03T15:41:06;0.01;84.57
68128;SHT30;54931;52.098;21.006;2023-02-03T15:43:45;0.05;84.81
68128;SHT30;54931;52.098;21.006;2023-02-03T15:46:29;0.08;84.73
68128;SHT30;54931;52.098;21.006;2023-02-03T15:49:18;0.10;84.66
68128;SHT30;54931;52.098;21.006;2023-02-03T15:52:01;0.09;84.65
68128;SHT30;54931;52.098;21.006;2023-02-03T15:54:46;0.09;84.70
68128;SHT30;54931;52.098;21.006;2023-02-03T15:57:25;0.08;84.67
68128;SHT30;54931;52.098;21.006;2023-02-03T16:03:14;0.06;84.56
68128;SHT30;54931;52.098;21.006;2023-02-03T16:05:48;0.05;84.55
68128;SHT30;54931;52.098;21.006;2023-02-03T16:11:21;0.03;84.63
68128;SHT30;54931;52.098;21.006;2023-02-03T16:13:51;0.01;84.79
68128;SHT30;54931;52.098;21.006;2023-02-03T16:16:35;0.02;84.75
68128;SHT30;54931;52.098;21.006;2023-02-03T16:19:20;0.03;84.76
68128;SHT30;54931;52.098;21.006;2023-02-03T16:21:53;0.05;84.69
68128;SHT30;54931;52.098;21.006;2023-02-03T16:24:37;0.05;84.67
68128;SHT30;54931;52.098;21.006;2023-02-03T16:33:10;0.06;84.82
68128;SHT30;54931;52.098;21.006;2023-02-03T16:36:08;0.05;84.81
68128;SHT30;54931;52.098;21.006;2023-02-03T16:39:00;0.06;84.80
68128;SHT30;54931;52.098;21.006;2023-02-03T16:41:56;0.06;84.77
68128;SHT30;54931;52.098;21.006;2023-02-03T16:44:44;0.08;84.74
68128;SHT30;54931;52.098;21.006;2023-02-03T16:47:31;0.07;84.84
68128;SHT30;54931;52.098;21.006;2023-02-03T16:50:21;0.06;84.88
68128;SHT30;54931;52.098;21.006;2023-02-03T16:53:11;0.06;84.82
68128;SHT30;54931;52.098;21.006;2023-02-03T16:55:42;0.06;84.83
68128;SHT30;54931;52.098;21.006;2023-02-03T16:58:10;0.08;84.78
68128;SHT30;54931;52.098;21.006;2023-02-03T17:00:39;0.08;84.83
68128;SHT30;54931;52.098;21.006;2023-02-03T17:03:11;0.08;84.83
68128;SHT30;54931;52.098;21.006;2023-02-03T17:05:43;0.10;84.80
68128;SHT30;54931;52.098;21.006;2023-02-03T17:08:14;0.10;84.77
68128;SHT30;54931;52.098;21.006;2023-02-03T17:10:46;0.12;84.75
68128;SHT30;54931;52.098;21.006;2023-02-03T17:13:16;0.12;84.78
68128;SHT30;54931;52.098;21.006;2023-02-03T17:15:48;0.12;84.70
68128;SHT30;54931;52.098;21.006;2023-02-03T17:18:21;0.12;84.71
68128;SHT30;54931;52.098;21.006;2023-02-03T17:20:49;0.13;84.70
68128;SHT30;54931;52.098;21.006;2023-02-03T17:23:18;0.13;84.69
68128;SHT30;54931;52.098;21.006;2023-02-03T17:25:46;0.13;84.72
68128;SHT30;54931;52.098;21.006;2023-02-03T17:28:16;0.13;84.66
68128;SHT30;54931;52.098;21.006;2023-02-03T17:30:44;0.13;84.76
68128;SHT30;54931;52.098;21.006;2023-02-03T17:33:13;0.13;84.76
68128;SHT30;54931;52.098;21.006;2023-02-03T17:35:42;0.13;84.75
68128;SHT30;54931;52.098;21.006;2023-02-03T17:38:12;0.13;84.70
68128;SHT30;54931;52.098;21.006;2023-02-03T17:40:41;0.13;84.68
68128;SHT30;54931;52.098;21.006;2023-02-03T17:43:10;0.15;84.59
68128;SHT30;54931;52.098;21.006;2023-02-03T17:45:40;0.16;84.54
68128;SHT30;54931;52.098;21.006;2023-02-03T17:48:08;0.16;84.42
68128;SHT30;54931;52.098;21.006;2023-02-03T17:50:36;0.17;84.39
68128;SHT30;54931;52.098;21.006;2023-02-03T17:53:04;0.16;84.36
68128;SHT30;54931;52.098;21.006;2023-02-03T17:55:32;0.18;84.31
68128;SHT30;54931;52.098;21.006;2023-02-03T17:58:03;0.19;84.32
68128;SHT30;54931;52.098;21.006;2023-02-03T18:00:32;0.20;84.21
68128;SHT30;54931;52.098;21.006;2023-02-03T18:02:59;0.20;84.17
68128;SHT30;54931;52.098;21.006;2023-02-03T18:05:27;0.20;84.10
68128;SHT30;54931;52.098;21.006;2023-02-03T18:07:55;0.21;84.10
68128;SHT30;54931;52.098;21.006;2023-02-03T18:10:23;0.21;84.10
68128;SHT30;54931;52.098;21.006;2023-02-03T18:12:51;0.22;84.02
68128;SHT30;54931;52.098;21.006;2023-02-03T18:15:19;0.22;84.00
68128;SHT30;54931;52.098;21.006;2023-02-03T18:17:48;0.23;83.98
68128;SHT30;54931;52.098;21.006;2023-02-03T18:20:15;0.24;83.89
68128;SHT30;54931;52.098;21.006;2023-02-03T18:22:44;0.23;83.93
68128;SHT30;54931;52.098;21.006;2023-02-03T18:25:12;0.24;83.90
68128;SHT30;54931;52.098;21.006;2023-02-03T18:27:43;0.24;83.97
68128;SHT30;54931;52.098;21.006;2023-02-03T18:30:11;0.23;83.92
68128;SHT30;54931;52.098;21.006;2023-02-03T18:32:41;0.24;83.90
68128;SHT30;54931;52.098;21.006;2023-02-03T18:35:09;0.24;83.95
68128;SHT30;54931;52.098;21.006;2023-02-03T18:37:40;0.24;83.96
68128;SHT30;54931;52.098;21.006;2023-02-03T18:40:08;0.24;83.88